Latest Coastal Weather Observations for Swan Island

IDT60701

Issued at 9:41 pm EDT Wednesday 1 April 2015 (issued every 10 minutes, with the page automatically refreshed every 10 minutes)

About coastal observations | Map of coastal stations | Coastal observations for TAS | Marine services | Other Formats
Station Details ID: 092123 Name: SWAN ISLAND Lat: -40.73 Lon: 148.12 Height: 15.0 m
Data from the previous 72 hours. | See also: Recent months at Swan Island
Date/Time
EDT
Temp

°C
Wind Pressure Rain
since 9am
mm
Weather Cloud Vis
km
Sea
Height
m
Swell
Dir
 
Speed
knots
Gust
knots
hPa Trend Height
m
Period
s
Dir
01/09:30pm 19.5 N 17 19 1009.6 - 0.0 - - - - - - -
01/09:00pm 19.6 N 16 18 1010.0 - 0.0 - - - - - - -
01/08:30pm 19.4 N 14 15 1010.3 - 0.0 - - - - - - -
01/08:00pm 19.1 N 12 13 1010.6 - 0.0 - - - - - - -
01/07:30pm 19.6 N 15 16 1010.7 - 0.0 - - - - - - -
01/07:00pm 19.8 N 15 17 1010.7 - 0.0 - - - - - - -
01/06:30pm 19.9 N 8 15 1010.9 - 0.0 - - - - - - -
01/06:00pm 19.7 WSW 4 6 1011.4 - 0.0 - - - - - - -
01/05:30pm 20.7 NW 4 11 1011.4 - 0.0 - - - - - - -
01/05:00pm 20.8 NW 5 8 1011.9 - 0.0 - - - - - - -
01/04:30pm 19.4 NW 4 5 1012.2 - 0.0 - - - - - - -
01/04:00pm 20.4 WNW 6 9 1012.6 - 0.0 - - - - - - -
01/03:30pm 19.8 NW 4 7 1013.1 - 0.0 - - - - - - -
01/03:00pm 20.0 WNW 5 7 1013.5 - 0.0 - - - - - - -
01/02:30pm 20.0 WNW 7 10 1013.9 - 0.0 - - - - - - -
01/02:00pm 19.9 NW 5 7 1014.4 - 0.0 - - - - - - -
01/01:30pm 19.6 WNW 5 7 1015.0 - 0.0 - - - - - - -
01/01:00pm 18.8 NW 6 9 1015.8 - 0.0 - - - - - - -
01/12:30pm 17.9 NW 6 7 1016.1 - 0.0 - - - - - - -
01/12:00pm 17.5 NNW 5 6 1016.4 - 0.0 - - - - - - -
01/11:30am 16.9 NW 4 6 1017.0 - 0.0 - - - - - - -
01/11:00am 16.3 NNW 5 6 1017.4 - 0.0 - - - - - - -
01/10:30am 16.6 NNW 4 5 1017.8 - 0.0 - - - - - - -
01/10:00am 16.6 N 5 7 1018.3 - 0.0 - - - - - - -
01/09:30am 16.3 NNE 6 9 1018.5 - 0.0 - - - - - - -
01/09:00am 15.7 CALM 0 0 1018.7 - 0.0 - - - - - - -
01/08:30am 14.8 WSW 2 3 1018.9 - 0.0 - - - - - - -
01/08:00am 14.2 SW 1 2 1019.2 - 0.0 - - - - - - -
01/07:30am 14.1 SW 2 2 1019.3 - 0.0 - - - - - - -
01/07:00am 13.9 SW 1 1 1019.1 - 0.0 - - - - - - -
01/06:30am 13.3 SW 3 3 1019.3 - 0.0 - - - - - - -
01/06:00am 13.7 SW 3 4 1019.4 - 0.0 - - - - - - -
01/05:30am 13.4 WSW 4 5 1019.6 - 0.0 - - - - - - -
01/05:00am 13.8 SW 3 4 1019.6 - 0.0 - - - - - - -
01/04:30am 14.6 W 4 6 1019.8 - 0.0 - - - - - - -
01/04:00am 15.2 WNW 4 5 1020.1 - 0.0 - - - - - - -
01/03:30am 15.2 WNW 4 5 1020.7 - 0.0 - - - - - - -
01/03:00am 15.3 WNW 5 6 1021.1 - 0.0 - - - - - - -
01/02:30am 15.4 WNW 5 7 1021.7 - 0.0 - - - - - - -
01/02:00am 15.4 WNW 6 8 1022.1 - 0.0 - - - - - - -
01/01:30am 15.6 WNW 6 9 1022.5 - 0.0 - - - - - - -
01/01:00am 15.7 WNW 7 8 1022.7 - 0.0 - - - - - - -
01/12:30am 15.8 WNW 7 9 1022.9 - 0.0 - - - - - - -
01/12:00am 15.9 WNW 8 12 1023.2 - 0.0 - - - - - - -
 
Date/Time
EDT
Temp

°C
Wind Pressure Rain
since 9am
mm
Weather Cloud Vis
km
Sea
Height
m
Swell
Dir
 
Speed
knots
Gust
knots
hPa Trend Height
m
Period
s
Dir
31/11:30pm 15.9 WNW 8 13 1023.5 - 0.0 - - - - - - -
31/11:00pm 16.0 WNW 9 12 1023.5 - 0.0 - - - - - - -
31/10:30pm 16.0 WNW 9 12 1023.7 - 0.0 - - - - - - -
31/10:00pm 16.1 WNW 9 13 1023.5 - 0.0 - - - - - - -
31/09:30pm 16.2 WNW 9 13 1023.5 - 0.0 - - - - - - -
31/09:00pm 16.3 WNW 11 15 1023.4 - 0.0 - - - - - - -
31/08:30pm 16.2 WNW 11 13 1023.3 - 0.0 - - - - - - -
31/08:00pm 16.4 WNW 10 13 1023.1 - 0.0 - - - - - - -
31/07:30pm 16.5 WNW 10 14 1023.0 - 0.0 - - - - - - -
31/07:00pm 16.5 WNW 10 13 1022.9 - 0.0 - - - - - - -
31/06:30pm 17.0 WNW 11 15 1022.7 - 0.0 - - - - - - -
31/06:00pm 17.4 WNW 11 15 1022.8 - 0.0 - - - - - - -
31/05:30pm 17.9 WNW 12 17 1022.8 - 0.0 - - - - - - -
31/05:00pm 18.3 WNW 12 17 1023.0 - 0.0 - - - - - - -
31/04:30pm 18.3 WNW 12 18 1023.0 - 0.0 - - - - - - -
31/04:00pm 18.7 WNW 13 18 1023.2 - 0.0 - - - - - - -
31/03:30pm 18.7 WNW 14 20 1023.5 - 0.0 - - - - - - -
31/03:00pm 19.6 WNW 12 16 1023.4 - 0.0 - - - - - - -
31/02:30pm 19.3 WNW 14 20 1023.3 - 0.0 - - - - - - -
31/02:00pm 18.8 WNW 14 19 1023.7 - 0.0 - - - - - - -
31/01:30pm 18.4 WNW 13 19 1024.2 - 0.0 - - - - - - -
31/01:00pm 18.7 W 10 15 1024.3 - 0.0 - - - - - - -
31/12:30pm 19.1 W 11 15 1024.6 - 0.0 - - - - - - -
31/12:00pm 18.8 W 12 16 1025.1 - 0.0 - - - - - - -
31/11:30am 19.3 W 11 16 1025.3 - 0.0 - - - - - - -
31/11:00am 17.4 W 13 16 1025.5 - 0.0 - - - - - - -
31/10:30am 17.8 W 12 15 1025.5 - 0.0 - - - - - - -
31/10:00am 17.4 W 11 15 1025.6 - 0.0 - - - - - - -
31/09:30am 17.2 W 9 11 1025.6 - 0.0 - - - - - - -
31/09:00am 16.3 W 7 9 1025.5 - 0.0 - - - - - - -
31/08:30am 15.7 WSW 7 10 1025.2 - 0.0 - - - - - - -
31/08:00am 15.6 WSW 6 9 1025.0 - 0.0 - - - - - - -
31/07:30am 16.1 W 11 15 1024.7 - 0.0 - - - - - - -
31/07:00am 15.7 W 9 13 1024.4 - 0.0 - - - - - - -
31/06:30am 15.9 W 13 20 1024.2 - 0.0 - - - - - - -
31/06:00am 15.9 W 14 18 1024.1 - 0.0 - - - - - - -
31/05:30am 15.5 W 10 17 1023.9 - 0.0 - - - - - - -
31/05:00am 14.9 W 8 11 1023.8 - 0.0 - - - - - - -
31/04:30am 14.9 W 8 11 1023.8 - 0.0 - - - - - - -
31/04:00am 15.4 W 14 18 1023.7 - 0.0 - - - - - - -
31/03:30am 15.4 W 14 19 1023.6 - 0.0 - - - - - - -
31/03:00am 15.2 W 13 18 1023.6 - 0.0 - - - - - - -
31/02:30am 15.4 W 13 17 1023.7 - 0.0 - - - - - - -
31/02:00am 15.3 W 12 16 1023.7 - 0.0 - - - - - - -
31/01:30am 15.6 W 13 19 1023.5 - 0.0 - - - - - - -
31/01:00am 15.6 W 12 20 1023.7 - 0.0 - - - - - - -
31/12:30am 15.8 W 15 19 1023.7 - 0.0 - - - - - - -
31/12:00am 15.9 W 14 20 1023.8 - 0.0 - - - - - - -
 
Date/Time
EDT
Temp

°C
Wind Pressure Rain
since 9am
mm
Weather Cloud Vis
km
Sea
Height
m
Swell
Dir
 
Speed
knots
Gust
knots
hPa Trend Height
m
Period
s
Dir
30/11:30pm 16.2 W 17 23 1023.6 - 0.0 - - - - - - -
30/11:00pm 16.2 W 16 21 1023.6 - 0.0 - - - - - - -
30/10:30pm 16.3 W 16 22 1023.4 - 0.0 - - - - - - -
30/10:00pm 16.4 W 20 27 1023.0 - 0.0 - - - - - - -
30/09:30pm 16.5 W 18 26 1023.1 - 0.0 - - - - - - -
30/09:00pm 16.6 W 18 24 1023.1 - 0.0 - - - - - - -
30/08:42pm 16.6 W 15 25 1022.9 - 0.0 - - - - - - -
30/08:30pm 16.6 W 16 23 1022.9 - 0.0 - - - - - - -
30/08:00pm 16.7 WNW 13 19 1022.5 - 0.0 - - - - - - -
30/07:30pm 16.9 WNW 15 22 1021.9 - 0.0 - - - - - - -
30/07:03pm 16.9 WNW 18 30 1021.4 - 0.0 - - - - - - -
30/07:00pm 17.0 WNW 17 26 1021.4 - 0.0 - - - - - - -
30/06:30pm 17.3 WNW 18 26 1021.2 - 0.0 - - - - - - -
30/06:08pm 17.6 WNW 15 25 1021.1 - 0.0 - - - - - - -
30/06:00pm 17.6 WNW 17 25 1021.0 - 0.0 - - - - - - -
30/05:49pm 17.7 WNW 17 27 1021.0 - 0.0 - - - - - - -
30/05:30pm 17.9 WNW 18 27 1020.9 - 0.0 - - - - - - -
30/05:00pm 18.1 WNW 21 26 1020.4 - 0.0 - - - - - - -
30/04:30pm 18.8 WNW 16 24 1020.6 - 0.0 - - - - - - -
30/04:00pm 19.0 WNW 15 22 1020.6 - 0.0 - - - - - - -
30/03:50pm 19.1 W 16 26 1020.6 - 0.0 - - - - - - -
30/03:30pm 19.4 WNW 16 24 1020.6 - 0.0 - - - - - - -
30/03:00pm 19.1 WNW 19 29 1020.6 - 0.0 - - - - - - -
30/02:51pm 19.2 WNW 19 29 1020.7 - 0.0 - - - - - - -
30/02:30pm 17.9 WNW 16 24 1020.8 - 0.0 - - - - - - -
30/02:24pm 17.8 WNW 17 27 1020.9 - 0.0 - - - - - - -
30/02:00pm 19.3 WNW 19 26 1021.0 - 0.0 - - - - - - -
30/01:30pm 19.0 WNW 18 25 1021.3 - 0.0 - - - - - - -
30/01:00pm 18.4 WNW 18 24 1021.4 - 0.0 - - - - - - -
30/12:30pm 19.1 WNW 18 24 1021.3 - 0.0 - - - - - - -
30/12:00pm 18.6 WNW 19 26 1021.3 - 0.0 - - - - - - -
30/11:30am 18.5 WNW 19 27 1021.3 - 0.0 - - - - - - -
30/11:00am 17.7 WNW 20 27 1021.4 - 0.0 - - - - - - -
30/10:30am 17.4 WNW 19 28 1021.1 - 0.0 - - - - - - -
30/10:00am 17.6 WNW 19 26 1020.8 - 0.0 - - - - - - -
30/09:30am 17.3 WNW 18 26 1020.7 - 0.0 - - - - - - -
30/09:00am 16.9 WNW 19 29 1020.4 - 0.0 - - - - - - -
30/08:30am 17.1 WNW 17 22 1020.3 - 0.0 - - - - - - -
30/08:00am 16.7 NW 20 26 1019.9 - 0.0 - - - - - - -
30/07:30am 16.7 WNW 19 26 1019.7 - 0.0 - - - - - - -
30/07:00am 16.8 WNW 19 25 1019.5 - 0.0 - - - - - - -
30/06:30am 16.7 WNW 17 23 1019.6 - 0.0 - - - - - - -
30/06:00am 16.9 WNW 15 23 1019.5 - 0.0 - - - - - - -
30/05:30am 16.7 WNW 17 23 1019.4 - 0.0 - - - - - - -
30/05:00am 16.7 WNW 16 23 1019.4 - 0.0 - - - - - - -
30/04:30am 16.8 WNW 16 23 1019.5 - 0.0 - - - - - - -
30/04:00am 16.5 WNW 16 22 1019.5 - 0.0 - - - - - - -
30/03:30am 16.3 WNW 16 22 1019.3 - 0.0 - - - - - - -
30/03:00am 16.6 WNW 17 24 1019.6 - 0.0 - - - - - - -
30/02:30am 16.8 WNW 14 22 1020.1 - 0.0 - - - - - - -
30/02:00am 16.6 WNW 15 20 1020.1 - 0.0 - - - - - - -
30/01:30am 16.7 WNW 16 23 1020.2 - 0.0 - - - - - - -
30/01:00am 16.7 WNW 16 22 1020.4 - 0.0 - - - - - - -
30/12:30am 16.9 WNW 16 22 1020.4 - 0.0 - - - - - - -
30/12:00am 16.9 WNW 15 21 1020.5 - 0.0 - - - - - - -
 
Date/Time
EDT
Temp

°C
Wind Pressure Rain
since 9am
mm
Weather Cloud Vis
km
Sea
Height
m
Swell
Dir
 
Speed
knots
Gust
knots
hPa Trend Height
m
Period
s
Dir
29/11:30pm 16.9 WNW 14 20 1020.6 - 0.0 - - - - - - -
29/11:00pm 16.9 WNW 15 21 1020.5 - 0.0 - - - - - - -
29/10:30pm 16.8 WNW 12 18 1020.5 - 0.0 - - - - - - -
29/10:00pm 16.6 W 13 21 1020.4 - 0.0 - - - - - - -

Other Formats:

Comma delimited format used in spreadsheet applications
http://www.bom.gov.au/fwo/IDT60701/IDT60701.95985.axf

JavaScript Object Notation format (JSON) in row-major order
http://www.bom.gov.au/fwo/IDT60701/IDT60701.95985.json